createdAt,value
2023-02-03T00:00:06.508Z,-0.09
2023-02-03T00:02:58.275Z,-0.08
2023-02-03T00:05:25.673Z,-0.09
2023-02-03T00:07:52.836Z,-0.14
2023-02-03T00:10:21.111Z,-0.18
2023-02-03T00:12:54.610Z,-0.22
2023-02-03T00:15:22.892Z,-0.25
2023-02-03T00:17:50.023Z,-0.28
2023-02-03T00:20:17.102Z,-0.29
2023-02-03T00:22:44.058Z,-0.29
2023-02-03T00:25:11.518Z,-0.29
2023-02-03T00:27:38.718Z,-0.30
2023-02-03T00:30:07.052Z,-0.30
2023-02-03T00:32:34.152Z,-0.33
2023-02-03T00:35:01.365Z,-0.35
2023-02-03T00:37:28.320Z,-0.37
2023-02-03T00:39:55.474Z,-0.39
2023-02-03T00:42:22.635Z,-0.41
2023-02-03T00:44:49.886Z,-0.41
2023-02-03T00:47:17.049Z,-0.42
2023-02-03T00:49:43.990Z,-0.43
2023-02-03T00:52:10.944Z,-0.43
2023-02-03T00:54:38.407Z,-0.44
2023-02-03T00:57:05.352Z,-0.46
2023-02-03T00:59:32.514Z,-0.46
2023-02-03T01:01:59.796Z,-0.47
2023-02-03T01:04:26.922Z,-0.49
2023-02-03T01:06:57.045Z,-0.51
2023-02-03T01:09:24.106Z,-0.52
2023-02-03T01:11:51.083Z,-0.56
2023-02-03T01:14:18.207Z,-0.57
2023-02-03T01:16:45.403Z,-0.58
2023-02-03T01:19:12.719Z,-0.59
2023-02-03T01:21:40.089Z,-0.61
2023-02-03T01:24:09.192Z,-0.62
2023-02-03T01:26:38.077Z,-0.63
2023-02-03T01:29:05.234Z,-0.65
2023-02-03T01:31:38.999Z,-0.68
2023-02-03T01:34:08.083Z,-0.72
2023-02-03T01:36:35.207Z,-0.74
2023-02-03T01:39:03.369Z,-0.76
2023-02-03T01:41:31.858Z,-0.78
2023-02-03T01:44:00.064Z,-0.78
2023-02-03T01:46:32.718Z,-0.79
2023-02-03T01:49:25.455Z,-0.79
2023-02-03T01:51:53.848Z,-0.78
2023-02-03T01:54:27.542Z,-0.78
2023-02-03T01:56:58.586Z,-0.77
2023-02-03T01:59:25.945Z,-0.76
2023-02-03T02:01:54.029Z,-0.76
2023-02-03T02:04:24.607Z,-0.75
2023-02-03T02:06:51.628Z,-0.74
2023-02-03T02:09:18.659Z,-0.73
2023-02-03T02:11:45.760Z,-0.75
2023-02-03T02:14:12.974Z,-0.78
2023-02-03T02:16:46.009Z,-0.83
2023-02-03T02:19:15.673Z,-0.87
2023-02-03T02:21:42.735Z,-0.88
2023-02-03T02:24:09.713Z,-0.88
2023-02-03T02:26:42.771Z,-0.86
2023-02-03T02:29:13.097Z,-0.86
2023-02-03T02:31:47.824Z,-0.85
2023-02-03T02:34:27.331Z,-0.87
2023-02-03T02:37:21.023Z,-0.89
2023-02-03T02:39:56.268Z,-0.90
2023-02-03T02:42:23.324Z,-0.91
2023-02-03T02:44:52.743Z,-0.93
2023-02-03T02:47:20.878Z,-0.98
2023-02-03T02:49:48.160Z,-0.99
2023-02-03T02:52:16.852Z,-1.01
2023-02-03T02:54:47.805Z,-1.01
2023-02-03T02:57:17.508Z,-1.02
2023-02-03T02:59:45.585Z,-1.05
2023-02-03T03:02:13.318Z,-1.07
2023-02-03T03:04:42.516Z,-1.09
2023-02-03T03:07:30.092Z,-1.12
2023-02-03T03:10:01.015Z,-1.15
2023-02-03T03:12:34.311Z,-1.19
2023-02-03T03:15:03.919Z,-1.26
2023-02-03T03:17:33.494Z,-1.37
2023-02-03T03:20:02.939Z,-1.47
2023-02-03T03:22:33.987Z,-1.53
2023-02-03T03:25:04.928Z,-1.59
2023-02-03T03:27:39.363Z,-1.67
2023-02-03T03:30:10.652Z,-1.72
2023-02-03T03:32:37.961Z,-1.80
2023-02-03T03:35:05.634Z,-1.83
2023-02-03T03:37:37.834Z,-1.89
2023-02-03T03:40:08.254Z,-1.93
2023-02-03T03:42:57.206Z,-1.97
2023-02-03T03:45:31.734Z,-2.00
2023-02-03T03:48:04.397Z,-2.04
2023-02-03T03:50:33.939Z,-2.08
2023-02-03T03:53:02.617Z,-2.11
2023-02-03T03:55:31.480Z,-2.13
2023-02-03T03:58:01.596Z,-2.19
2023-02-03T04:00:30.702Z,-2.28
2023-02-03T04:02:59.815Z,-2.35
2023-02-03T04:05:27.672Z,-2.38
2023-02-03T04:07:54.837Z,-2.44
2023-02-03T04:10:51.042Z,-2.56
2023-02-03T04:13:20.043Z,-2.64
2023-02-03T04:15:47.272Z,-2.68
2023-02-03T04:18:15.001Z,-2.67
2023-02-03T04:20:42.478Z,-2.60
2023-02-03T04:23:09.380Z,-2.56
2023-02-03T04:25:36.532Z,-2.54
2023-02-03T04:28:03.861Z,-2.54
2023-02-03T04:30:30.893Z,-2.57
2023-02-03T04:32:58.001Z,-2.58
2023-02-03T04:35:25.054Z,-2.60
2023-02-03T04:37:52.089Z,-2.62
2023-02-03T04:40:19.108Z,-2.68
2023-02-03T04:42:46.322Z,-2.74
2023-02-03T04:45:13.469Z,-2.80
2023-02-03T04:47:40.440Z,-2.86
2023-02-03T04:50:08.032Z,-2.89
2023-02-03T04:52:35.039Z,-2.90
2023-02-03T04:55:03.536Z,-2.93
2023-02-03T04:57:30.872Z,-2.94
2023-02-03T04:59:57.732Z,-2.97
2023-02-03T05:02:24.735Z,-3.01
2023-02-03T05:04:52.148Z,-3.04
2023-02-03T05:07:19.152Z,-3.06
2023-02-03T05:09:46.065Z,-3.10
2023-02-03T05:12:13.002Z,-3.11
2023-02-03T05:14:39.961Z,-3.10
2023-02-03T05:17:07.103Z,-3.08
2023-02-03T05:19:34.113Z,-3.07
2023-02-03T05:22:01.008Z,-3.07
2023-02-03T05:24:28.030Z,-3.10
2023-02-03T05:26:54.867Z,-3.12
2023-02-03T05:29:21.863Z,-3.11
2023-02-03T05:31:48.723Z,-3.10
2023-02-03T05:34:15.660Z,-3.08
2023-02-03T05:36:42.757Z,-3.09
2023-02-03T05:39:09.805Z,-3.08
2023-02-03T05:41:51.763Z,-3.06
2023-02-03T05:44:33.247Z,-3.06
2023-02-03T05:47:00.327Z,-3.05
2023-02-03T05:49:27.342Z,-3.02
2023-02-03T05:51:54.770Z,-2.98
2023-02-03T05:54:21.987Z,-2.94
2023-02-03T05:56:49.026Z,-2.88
2023-02-03T05:59:16.046Z,-2.82
2023-02-03T06:01:43.025Z,-2.79
2023-02-03T06:04:10.102Z,-2.80
2023-02-03T06:06:37.199Z,-2.79
2023-02-03T06:09:05.833Z,-2.82
2023-02-03T06:11:33.077Z,-2.84
2023-02-03T06:14:00.123Z,-2.85
2023-02-03T06:16:27.810Z,-2.83
2023-02-03T06:18:58.025Z,-2.86
2023-02-03T06:21:25.013Z,-2.89
2023-02-03T06:23:51.922Z,-2.89
2023-02-03T06:26:18.884Z,-2.96
2023-02-03T06:28:45.938Z,-2.94
2023-02-03T06:31:13.069Z,-2.89
2023-02-03T06:33:40.216Z,-2.80
2023-02-03T06:36:07.306Z,-2.70
2023-02-03T06:38:34.549Z,-2.60
2023-02-03T06:41:01.600Z,-2.47
2023-02-03T06:43:28.869Z,-2.36
2023-02-03T06:45:55.996Z,-2.25
2023-02-03T06:48:23.432Z,-2.12
2023-02-03T06:50:50.451Z,-2.02
2023-02-03T06:53:17.500Z,-1.92
2023-02-03T06:55:44.646Z,-1.79
2023-02-03T06:58:11.796Z,-1.68
2023-02-03T07:00:38.848Z,-1.57
2023-02-03T07:03:05.934Z,-1.44
2023-02-03T07:05:33.176Z,-1.32
2023-02-03T07:08:00.228Z,-1.22
2023-02-03T07:10:27.531Z,-1.14
2023-02-03T07:12:54.833Z,-1.10
2023-02-03T07:15:21.882Z,-1.03
2023-02-03T07:17:53.781Z,-0.94
2023-02-03T07:20:21.727Z,-0.85
2023-02-03T07:22:55.355Z,-0.75
2023-02-03T07:25:23.401Z,-0.64
2023-02-03T07:27:50.510Z,-0.51
2023-02-03T07:30:17.915Z,-0.37
2023-02-03T07:32:49.165Z,-0.27
2023-02-03T07:35:16.421Z,-0.19
2023-02-03T07:37:43.617Z,-0.08
2023-02-03T07:40:11.868Z,0.03
2023-02-03T07:42:42.663Z,0.13
2023-02-03T07:45:10.683Z,0.26
2023-02-03T07:47:37.930Z,0.35
2023-02-03T07:50:05.106Z,0.45
2023-02-03T07:52:32.128Z,0.56
2023-02-03T07:54:59.046Z,0.67
2023-02-03T07:57:26.247Z,0.74
2023-02-03T07:59:53.257Z,0.83
2023-02-03T08:02:20.255Z,0.92
2023-02-03T08:04:47.329Z,1.07
2023-02-03T08:07:14.309Z,1.23
2023-02-03T08:09:41.614Z,1.38
2023-02-03T08:12:08.789Z,1.50
2023-02-03T08:14:35.924Z,1.61
2023-02-03T08:17:02.983Z,1.70
2023-02-03T08:19:29.825Z,1.72
2023-02-03T08:21:58.749Z,1.74
2023-02-03T08:24:25.987Z,1.70
2023-02-03T08:26:53.967Z,1.66
2023-02-03T08:29:21.144Z,1.58
2023-02-03T08:31:48.474Z,1.54
2023-02-03T08:34:15.771Z,1.69
2023-02-03T08:36:43.602Z,1.84
2023-02-03T08:39:10.663Z,1.76
2023-02-03T08:41:37.682Z,1.78
2023-02-03T08:44:05.068Z,1.88
2023-02-03T08:46:32.836Z,1.99
2023-02-03T08:49:02.292Z,2.13
2023-02-03T08:51:29.913Z,2.13
2023-02-03T08:53:56.993Z,2.18
2023-02-03T08:56:25.958Z,2.38
2023-02-03T08:58:54.965Z,2.57
2023-02-03T09:01:22.936Z,2.68
2023-02-03T09:03:49.974Z,2.74
2023-02-03T09:06:16.955Z,2.79
2023-02-03T09:08:45.636Z,2.87
2023-02-03T09:11:13.812Z,2.89
2023-02-03T09:13:45.283Z,2.86
2023-02-03T09:16:13.225Z,2.79
2023-02-03T09:18:40.293Z,2.67
2023-02-03T09:21:08.344Z,2.52
2023-02-03T09:23:35.260Z,2.49
2023-02-03T09:26:06.889Z,2.65
2023-02-03T09:28:34.674Z,2.89
2023-02-03T09:31:06.000Z,3.02
2023-02-03T09:33:33.131Z,3.14
2023-02-03T09:35:59.961Z,3.22
2023-02-03T09:38:27.970Z,3.15
2023-02-03T09:41:10.470Z,3.10
2023-02-03T09:44:04.376Z,2.99
2023-02-03T09:46:50.102Z,2.96
2023-02-03T09:49:22.929Z,3.04
2023-02-03T09:51:55.451Z,3.17
2023-02-03T09:54:31.109Z,3.34
2023-02-03T09:56:59.793Z,3.55
2023-02-03T09:59:29.943Z,3.71
2023-02-03T10:02:09.196Z,3.85
2023-02-03T10:04:49.513Z,3.87
2023-02-03T10:07:24.803Z,3.88
2023-02-03T10:10:03.957Z,3.85
2023-02-03T10:12:45.988Z,3.80
2023-02-03T10:15:51.688Z,3.77
2023-02-03T10:18:21.322Z,3.82
2023-02-03T10:20:54.355Z,3.92
2023-02-03T10:23:29.266Z,4.01
2023-02-03T10:25:58.609Z,4.16
2023-02-03T10:28:35.548Z,4.38
2023-02-03T10:31:08.239Z,4.66
2023-02-03T10:33:35.153Z,4.94
2023-02-03T10:36:04.957Z,5.06
2023-02-03T10:38:51.099Z,5.33
2023-02-03T10:41:19.625Z,5.65
2023-02-03T10:43:46.934Z,6.18
2023-02-03T10:46:18.904Z,7.58
2023-02-03T10:48:46.281Z,9.09
2023-02-03T10:51:23.637Z,10.28
2023-02-03T10:53:52.949Z,10.48
2023-02-03T10:56:25.016Z,10.55
2023-02-03T10:58:57.947Z,10.62
2023-02-03T11:01:26.876Z,11.46
2023-02-03T11:03:53.754Z,12.84
2023-02-03T11:06:20.689Z,13.83
2023-02-03T11:08:48.978Z,14.73
2023-02-03T11:11:16.055Z,15.44
2023-02-03T11:13:42.862Z,15.40
2023-02-03T11:16:17.314Z,14.66
2023-02-03T11:18:50.597Z,13.65
2023-02-03T11:21:43.954Z,12.69
2023-02-03T11:24:18.066Z,11.79
2023-02-03T11:27:06.588Z,10.93
2023-02-03T11:29:35.474Z,10.22
2023-02-03T11:32:05.798Z,9.77
2023-02-03T11:34:37.563Z,9.38
2023-02-03T11:37:24.000Z,9.62
2023-02-03T11:39:51.020Z,10.48
2023-02-03T11:42:22.003Z,10.52
2023-02-03T11:44:48.967Z,10.22
2023-02-03T11:47:16.772Z,9.79
2023-02-03T11:50:02.440Z,9.24
2023-02-03T11:52:35.120Z,8.63
2023-02-03T11:55:32.250Z,8.22
2023-02-03T11:58:18.524Z,7.81
2023-02-03T12:00:45.485Z,7.38
2023-02-03T12:03:13.547Z,6.99
2023-02-03T12:05:54.958Z,6.82
2023-02-03T12:08:21.810Z,6.75
2023-02-03T12:11:18.334Z,6.72
2023-02-03T12:13:57.536Z,6.67
2023-02-03T12:16:31.385Z,6.56
2023-02-03T12:19:07.786Z,6.58
2023-02-03T12:21:37.774Z,6.70
2023-02-03T12:24:24.398Z,6.80
2023-02-03T12:26:54.116Z,6.74
2023-02-03T12:29:21.117Z,6.72
2023-02-03T12:31:57.280Z,6.73
2023-02-03T12:34:37.834Z,6.70
2023-02-03T12:37:07.914Z,6.65
2023-02-03T12:39:50.317Z,6.82
2023-02-03T12:42:20.238Z,7.26
2023-02-03T12:44:51.281Z,7.47
2023-02-03T12:47:24.581Z,7.69
2023-02-03T12:49:57.386Z,7.93
2023-02-03T12:52:40.805Z,7.64
2023-02-03T12:55:20.120Z,7.57
2023-02-03T12:57:54.444Z,7.58
2023-02-03T13:00:29.080Z,7.35
2023-02-03T13:03:16.582Z,6.95
2023-02-03T13:05:53.977Z,6.66
2023-02-03T13:08:39.850Z,6.48
2023-02-03T13:11:18.764Z,6.29
2023-02-03T13:13:51.590Z,6.08
2023-02-03T13:16:20.812Z,5.55
2023-02-03T13:18:51.871Z,5.17
2023-02-03T13:21:18.674Z,4.82
2023-02-03T13:23:47.654Z,4.47
2023-02-03T13:26:17.613Z,4.14
2023-02-03T13:29:05.505Z,3.87
2023-02-03T13:31:38.737Z,3.73
2023-02-03T13:34:12.016Z,3.60
2023-02-03T13:36:47.146Z,3.47
2023-02-03T13:39:20.220Z,3.36
2023-02-03T13:41:51.470Z,3.25
2023-02-03T13:44:21.391Z,3.09
2023-02-03T13:46:50.084Z,2.90
2023-02-03T13:49:31.668Z,2.78
2023-02-03T13:51:59.233Z,2.66
2023-02-03T13:54:26.392Z,2.52
2023-02-03T13:57:04.715Z,2.38
2023-02-03T13:59:38.300Z,2.25
2023-02-03T14:02:25.562Z,2.14
2023-02-03T14:04:54.359Z,2.04
2023-02-03T14:07:27.496Z,1.99
2023-02-03T14:10:13.159Z,1.97
2023-02-03T14:12:49.196Z,1.95
2023-02-03T14:15:19.155Z,1.92
2023-02-03T14:17:46.111Z,1.90
2023-02-03T14:20:42.544Z,1.90
2023-02-03T14:23:19.196Z,1.89
2023-02-03T14:25:52.390Z,1.85
2023-02-03T14:28:22.304Z,1.83
2023-02-03T14:31:06.371Z,1.77
2023-02-03T14:33:49.875Z,1.77
2023-02-03T14:36:29.212Z,1.78
2023-02-03T14:38:58.283Z,1.76
2023-02-03T14:41:29.527Z,1.77
2023-02-03T14:44:15.857Z,1.77
2023-02-03T14:46:45.874Z,1.76
2023-02-03T14:49:18.764Z,1.76
2023-02-03T14:51:54.104Z,1.76
2023-02-03T14:54:24.134Z,1.75
2023-02-03T14:57:13.210Z,1.74
2023-02-03T14:59:45.328Z,1.71
2023-02-03T15:02:18.645Z,1.70
2023-02-03T15:04:50.151Z,1.68
2023-02-03T15:07:36.902Z,1.65
2023-02-03T15:10:12.047Z,1.61
2023-02-03T15:12:44.514Z,1.58
2023-02-03T15:15:13.010Z,1.53
2023-02-03T15:17:40.053Z,1.48
2023-02-03T15:20:33.815Z,1.44
2023-02-03T15:23:01.831Z,1.42
2023-02-03T15:25:31.047Z,1.39
2023-02-03T15:28:12.128Z,1.37
2023-02-03T15:30:40.600Z,1.36
2023-02-03T15:33:11.596Z,1.34
2023-02-03T15:35:39.671Z,1.32
2023-02-03T15:38:11.099Z,1.30
2023-02-03T15:40:43.706Z,1.28
2023-02-03T15:43:17.290Z,1.26
2023-02-03T15:46:05.988Z,1.24
2023-02-03T15:48:37.926Z,1.20
2023-02-03T15:51:04.971Z,1.15
2023-02-03T15:53:47.615Z,1.12
2023-02-03T15:56:21.088Z,1.10
2023-02-03T15:58:49.004Z,1.07
2023-02-03T16:01:18.833Z,1.01
2023-02-03T16:03:48.379Z,0.99
2023-02-03T16:06:19.253Z,0.94
2023-02-03T16:08:46.576Z,0.85
2023-02-03T16:11:31.865Z,0.76
2023-02-03T16:14:00.539Z,0.60
2023-02-03T16:16:36.307Z,0.50
2023-02-03T16:19:05.099Z,0.36
2023-02-03T16:21:35.377Z,0.21
2023-02-03T16:24:04.817Z,0.08
2023-02-03T16:26:33.143Z,-0.02
2023-02-03T16:29:27.985Z,-0.13
2023-02-03T16:32:13.762Z,-0.24
2023-02-03T16:34:59.630Z,-0.33
2023-02-03T16:37:45.231Z,-0.39
2023-02-03T16:40:32.438Z,-0.41
2023-02-03T16:43:18.112Z,-0.41
2023-02-03T16:46:03.652Z,-0.42
2023-02-03T16:48:49.417Z,-0.44
2023-02-03T16:51:17.069Z,-0.41
2023-02-03T16:53:45.111Z,-0.39
2023-02-03T16:56:13.187Z,-0.37
2023-02-03T16:58:40.243Z,-0.33
2023-02-03T17:01:09.213Z,-0.29
2023-02-03T17:03:37.110Z,-0.27
2023-02-03T17:06:05.538Z,-0.27
2023-02-03T17:08:32.853Z,-0.23
2023-02-03T17:11:07.481Z,-0.22
2023-02-03T17:13:36.299Z,-0.20
2023-02-03T17:16:07.578Z,-0.16
2023-02-03T17:18:34.893Z,-0.11
2023-02-03T17:21:06.348Z,-0.08
2023-02-03T17:23:33.695Z,-0.07
2023-02-03T17:26:00.749Z,-0.06
2023-02-03T17:28:27.802Z,-0.05
2023-02-03T17:30:56.096Z,-0.05
2023-02-03T17:33:23.444Z,-0.03
2023-02-03T17:35:59.604Z,-0.02
2023-02-03T17:38:26.618Z,-0.01
2023-02-03T17:54:40.055Z,-0.12
2023-02-03T17:57:07.044Z,-0.11
2023-02-03T17:59:37.216Z,-0.11
2023-02-03T18:02:04.311Z,-0.11
2023-02-03T18:04:31.418Z,-0.11
2023-02-03T18:06:58.454Z,-0.10
2023-02-03T18:09:25.314Z,-0.08
2023-02-03T18:11:52.328Z,-0.07
2023-02-03T18:14:19.195Z,-0.06
2023-02-03T18:16:46.218Z,-0.06
2023-02-03T18:19:15.266Z,-0.05
2023-02-03T18:21:42.800Z,-0.05
2023-02-03T18:24:11.345Z,-0.06
2023-02-03T18:26:46.547Z,-0.05
2023-02-03T18:29:13.700Z,-0.03
2023-02-03T18:31:40.639Z,-0.03
2023-02-03T18:34:07.696Z,-0.03
2023-02-03T18:36:35.007Z,-0.02
2023-02-03T18:39:01.932Z,-0.02
2023-02-03T18:41:28.871Z,-0.02
2023-02-03T18:43:57.067Z,-0.02
2023-02-03T18:46:25.366Z,-0.02
2023-02-03T18:48:52.802Z,-0.02
2023-02-03T18:51:20.270Z,-0.01
2023-02-03T18:53:48.706Z,0.00
2023-02-03T18:56:17.244Z,0.00
2023-02-03T18:58:44.272Z,0.01
2023-02-03T19:01:19.905Z,0.02
2023-02-03T19:03:46.994Z,0.02
2023-02-03T19:06:14.044Z,0.03
2023-02-03T19:08:41.201Z,0.03
2023-02-03T19:11:08.248Z,0.03
2023-02-03T19:13:35.179Z,0.02
2023-02-03T19:16:02.300Z,0.02
2023-02-03T19:18:30.183Z,0.02
2023-02-03T19:20:57.196Z,0.02
2023-02-03T19:23:24.350Z,0.02
2023-02-03T19:25:51.915Z,0.01
2023-02-03T19:28:29.881Z,0.01
2023-02-03T19:31:08.844Z,0.02
2023-02-03T19:33:36.818Z,0.01
2023-02-03T19:36:07.759Z,0.01
2023-02-03T19:38:35.187Z,0.00
2023-02-03T19:41:02.789Z,-0.00
2023-02-03T19:43:30.633Z,-0.02
2023-02-03T19:45:57.709Z,-0.03
2023-02-03T19:48:24.879Z,-0.05
2023-02-03T19:50:53.666Z,-0.06
2023-02-03T19:53:21.237Z,-0.06
2023-02-03T19:55:48.287Z,-0.06
2023-02-03T19:58:15.231Z,-0.05
2023-02-03T20:00:42.644Z,-0.05
2023-02-03T20:03:10.061Z,-0.05
2023-02-03T20:05:37.635Z,-0.06
2023-02-03T20:08:05.307Z,-0.06
2023-02-03T20:10:32.656Z,-0.06
2023-02-03T20:13:00.245Z,-0.07
2023-02-03T20:15:27.604Z,-0.08
2023-02-03T20:17:54.838Z,-0.09
2023-02-03T20:20:22.314Z,-0.09
2023-02-03T20:22:49.590Z,-0.09
2023-02-03T20:25:16.680Z,-0.12
2023-02-03T20:27:43.698Z,-0.13
2023-02-03T20:30:11.639Z,-0.15
2023-02-03T20:32:39.095Z,-0.15
2023-02-03T20:35:06.447Z,-0.15
2023-02-03T20:37:35.550Z,-0.16
2023-02-03T20:40:03.831Z,-0.17
2023-02-03T20:42:31.051Z,-0.17
2023-02-03T20:44:58.041Z,-0.19
2023-02-03T20:47:25.706Z,-0.21
2023-02-03T20:49:53.270Z,-0.22
2023-02-03T20:52:20.533Z,-0.23
2023-02-03T20:54:47.588Z,-0.23
2023-02-03T20:57:15.869Z,-0.23
2023-02-03T20:59:46.605Z,-0.23
2023-02-03T21:02:18.649Z,-0.23
2023-02-03T21:04:58.012Z,-0.23
2023-02-03T21:07:27.313Z,-0.23
2023-02-03T21:09:54.473Z,-0.24
2023-02-03T21:12:21.421Z,-0.23
2023-02-03T21:14:48.434Z,-0.23
2023-02-03T21:17:17.370Z,-0.24
2023-02-03T21:19:44.836Z,-0.24
2023-02-03T21:22:38.493Z,-0.25
2023-02-03T21:25:06.162Z,-0.25
2023-02-03T21:27:33.923Z,-0.26
2023-02-03T21:30:02.315Z,-0.28
2023-02-03T21:32:34.379Z,-0.29
2023-02-03T21:35:01.453Z,-0.30
2023-02-03T21:37:34.527Z,-0.31
2023-02-03T21:40:01.419Z,-0.32
2023-02-03T21:42:41.524Z,-0.33
2023-02-03T21:45:14.382Z,-0.34
2023-02-03T21:47:41.667Z,-0.35
2023-02-03T21:50:27.779Z,-0.36
2023-02-03T21:52:55.282Z,-0.37
2023-02-03T21:55:22.280Z,-0.38
2023-02-03T21:57:50.140Z,-0.39
2023-02-03T22:00:42.579Z,-0.39
2023-02-03T22:03:18.600Z,-0.40
2023-02-03T22:05:46.207Z,-0.40
2023-02-03T22:08:16.626Z,-0.40
2023-02-03T22:10:43.679Z,-0.41
2023-02-03T22:13:12.164Z,-0.41
2023-02-03T22:15:39.835Z,-0.41
2023-02-03T22:18:07.090Z,-0.41
2023-02-03T22:20:34.345Z,-0.41
2023-02-03T22:23:01.503Z,-0.43
2023-02-03T22:25:28.558Z,-0.43
2023-02-03T22:27:56.071Z,-0.44
2023-02-03T22:30:23.073Z,-0.44
2023-02-03T22:32:50.177Z,-0.45
2023-02-03T22:35:17.286Z,-0.48
2023-02-03T22:37:44.538Z,-0.50
2023-02-03T22:40:12.061Z,-0.50
2023-02-03T22:42:39.666Z,-0.50
2023-02-03T22:45:07.141Z,-0.51
2023-02-03T22:47:34.281Z,-0.54
2023-02-03T22:50:01.856Z,-0.60
2023-02-03T22:52:28.761Z,-0.66
2023-02-03T22:54:56.058Z,-0.68
2023-02-03T22:57:23.228Z,-0.69
2023-02-03T22:59:50.384Z,-0.69
2023-02-03T23:02:17.530Z,-0.70
2023-02-03T23:04:44.957Z,-0.71
2023-02-03T23:07:12.243Z,-0.72
2023-02-03T23:09:39.408Z,-0.73
2023-02-03T23:12:06.652Z,-0.74
2023-02-03T23:14:34.330Z,-0.74
2023-02-03T23:17:01.454Z,-0.74
2023-02-03T23:19:28.432Z,-0.76
2023-02-03T23:21:55.585Z,-0.74
2023-02-03T23:24:22.491Z,-0.74
2023-02-03T23:26:49.388Z,-0.75
2023-02-03T23:29:16.521Z,-0.76
2023-02-03T23:31:43.592Z,-0.75
2023-02-03T23:34:29.596Z,-0.74
2023-02-03T23:36:56.947Z,-0.74
2023-02-03T23:39:23.891Z,-0.74
2023-02-03T23:41:50.853Z,-0.74
2023-02-03T23:44:17.791Z,-0.75
2023-02-03T23:46:45.125Z,-0.76
2023-02-03T23:49:12.219Z,-0.80
2023-02-03T23:51:39.260Z,-0.82
2023-02-03T23:54:06.512Z,-0.83
2023-02-03T23:56:33.668Z,-0.83
2023-02-03T23:59:01.102Z,-0.82
